Time;durP1;ratioP1;P1;durP2;ratioP2;P2;SDS_P1;SDS_P2;PMS_P1;PMS_P2;Temp;Humidity;BMP_temperature;BMP_pressure;BME280_temperature;BME280_humidity;BME280_pressure;Samples;Min_cycle;Max_cycle;Signal;HPM_P1;HPM_P2
2022/06/09 00:01:49;;;;;;;;;1.00;1.00;;;;;17.30;56.59;100750.16;4975608;28;45335;-50
2022/06/09 00:04:24;;;;;;;;;4.00;3.60;;;;;17.08;57.26;100750.97;4973489;28;45319;-53
2022/06/09 00:06:56;;;;;;;;;3.60;2.00;;;;;16.83;57.16;100705.13;4977150;28;45396;-56
2022/06/09 00:09:23;;;;;;;;;2.20;2.20;;;;;16.90;57.12;100733.50;4959987;28;45661;-51
2022/06/09 00:11:49;;;;;;;;;6.00;4.00;;;;;17.02;57.24;100754.78;4925216;28;45659;-52
2022/06/09 00:14:15;;;;;;;;;3.40;2.20;;;;;17.02;57.08;100754.78;4977118;28;45383;-53
2022/06/09 00:16:41;;;;;;;;;2.25;1.25;;;;;17.00;57.12;100743.03;4976331;28;45257;-51
2022/06/09 00:19:07;;;;;;;;;2.75;2.00;;;;;16.94;57.22;100739.38;4977153;28;46666;-50
2022/06/09 00:21:33;;;;;;;;;3.40;2.20;;;;;17.04;57.19;100761.72;4976684;28;45211;-51
2022/06/09 00:23:59;;;;;;;;;4.20;2.60;;;;;17.11;57.39;100760.69;4975583;28;45435;-49
2022/06/09 00:26:25;;;;;;;;;2.50;2.50;;;;;17.10;57.08;100762.66;4959978;28;45405;-49
2022/06/09 00:28:50;;;;;;;;;2.80;2.00;;;;;16.92;57.01;100724.94;4975602;28;47402;-48
2022/06/09 00:31:16;;;;;;;;;2.75;2.75;;;;;16.97;57.10;100736.06;4976625;28;45284;-50
2022/06/09 00:33:41;;;;;;;;;3.50;2.00;;;;;16.93;56.70;100732.16;4977248;28;45295;-55
2022/06/09 00:36:07;;;;;;;;;1.25;1.25;;;;;17.05;57.03;100762.56;4976530;28;45524;-52
2022/06/09 00:38:33;;;;;;;;;3.75;2.00;;;;;16.92;57.59;100759.03;4976590;28;45784;-49
2022/06/09 00:40:59;;;;;;;;;3.00;2.00;;;;;16.82;57.08;100747.81;4974862;28;45408;-55
2022/06/09 00:43:26;;;;;;;;;4.00;3.00;;;;;17.00;57.37;100784.63;4959345;28;45364;-49
2022/06/09 00:46:21;;;;;;;;;2.00;1.40;;;;;16.93;57.34;100779.28;4976729;28;45346;-51
2022/06/09 00:49:01;;;;;;;;;2.20;1.60;;;;;16.65;57.60;100750.59;4975418;28;45341;-52
2022/06/09 00:51:44;;;;;;;;;3.00;3.00;;;;;16.91;58.05;100785.06;4959018;28;45463;-51
2022/06/09 00:54:17;;;;;;;;;1.40;1.00;;;;;16.75;57.55;100761.00;4992900;28;45399;-51
2022/06/09 00:56:48;;;;;;;;;3.40;2.00;;;;;16.62;57.58;100748.31;4995055;28;45522;-51
2022/06/09 00:59:15;;;;;;;;;3.20;2.20;;;;;16.80;57.85;100781.31;5010737;28;46918;-50
2022/06/09 01:01:40;;;;;;;;;4.80;2.60;;;;;16.74;58.04;100778.69;4996242;28;45368;-51
2022/06/09 01:04:08;;;;;;;;;4.75;3.25;;;;;16.77;57.83;100789.28;4994613;28;45347;-50
2022/06/09 01:06:42;;;;;;;;;3.00;1.40;;;;;16.70;58.05;100775.59;5027643;28;45220;-51
2022/06/09 01:09:16;;;;;;;;;1.80;1.20;;;;;16.78;57.71;100788.19;5025720;28;45984;-50
2022/06/09 01:11:42;;;;;;;;;1.00;1.00;;;;;16.65;58.22;100786.59;4994266;28;45443;-54
2022/06/09 01:14:07;;;;;;;;;3.00;2.00;;;;;16.75;58.21;100791.47;5028137;28;45394;-51
2022/06/09 01:16:55;;;;;;;;;1.75;1.75;;;;;16.72;58.24;100794.75;4988040;28;45411;-48
2022/06/09 01:19:41;;;;;;;;;2.00;2.00;;;;;16.69;58.62;100790.53;4960830;28;45454;-51
2022/06/09 01:22:19;;;;;;;;;4.40;2.20;;;;;16.67;58.55;100801.88;4976035;28;45390;-51
2022/06/09 01:25:08;;;;;;;;;3.80;2.40;;;;;16.63;58.42;100797.94;4975908;28;45343;-50
2022/06/09 01:27:45;;;;;;;;;5.00;3.00;;;;;16.64;58.23;100791.28;4975067;28;45420;-47
2022/06/09 01:30:21;;;;;;;;;2.80;2.80;;;;;16.63;58.86;100795.16;4959569;28;46062;-50
2022/06/09 01:33:04;;;;;;;;;3.00;2.80;;;;;16.47;59.08;100802.38;4974437;28;45628;-51
2022/06/09 01:35:38;;;;;;;;;2.00;2.00;;;;;16.25;59.48;100786.50;4958760;28;45470;-50
2022/06/09 01:38:04;;;;;;;;;5.40;3.80;;;;;16.21;59.82;100774.22;4958350;28;45402;-47
2022/06/09 01:40:29;;;;;;;;;2.00;2.00;;;;;16.09;59.79;100776.22;4975843;28;46206;-49
2022/06/09 01:42:56;;;;;;;;;3.00;2.75;;;;;16.05;59.75;100778.63;4975866;28;45343;-53
2022/06/09 01:45:46;;;;;;;;;4.40;2.20;;;;;16.24;59.84;100814.41;4974932;28;45473;-51
2022/06/09 01:48:19;;;;;;;;;2.40;1.60;;;;;16.11;59.45;100810.88;4978101;28;45821;-54
2022/06/09 01:51:10;;;;;;;;;1.80;1.80;;;;;15.99;60.90;100819.22;4977935;28;47344;-51
2022/06/09 01:53:58;;;;;;;;;1.80;1.80;;;;;16.06;60.55;100816.28;4990255;28;45857;-49
2022/06/09 01:56:36;;;;;;;;;3.20;2.00;;;;;16.01;60.69;100818.13;5031201;28;45346;-52
2022/06/09 01:59:16;;;;;;;;;4.40;2.00;;;;;16.09;60.87;100818.59;5013459;28;45380;-52
2022/06/09 02:02:05;;;;;;;;;3.20;2.60;;;;;15.95;60.61;100817.19;4998757;28;45424;-51
2022/06/09 02:04:39;;;;;;;;;3.60;1.00;;;;;15.97;60.64;100831.63;5013374;28;45372;-48
2022/06/09 02:07:06;;;;;;;;;3.60;2.00;;;;;16.01;61.04;100827.25;4998821;28;45321;-51
2022/06/09 02:09:32;;;;;;;;;2.40;1.80;;;;;16.04;60.52;100835.09;4998123;28;45316;-48
2022/06/09 02:12:02;;;;;;;;;2.80;2.00;;;;;16.00;60.56;100820.06;5013621;28;46586;-48
2022/06/09 02:14:27;;;;;;;;;2.00;2.00;;;;;15.85;60.38;100795.66;5030172;28;45442;-50
2022/06/09 02:16:53;;;;;;;;;3.00;2.75;;;;;15.97;60.64;100831.63;5014204;28;45428;-52
2022/06/09 02:19:19;;;;;;;;;2.40;2.40;;;;;15.95;60.74;100820.78;4997877;28;45420;-50
2022/06/09 02:21:44;;;;;;;;;3.50;3.50;;;;;16.04;60.31;100835.09;5013670;28;45390;-49
2022/06/09 02:24:10;;;;;;;;;7.25;3.25;;;;;15.99;60.49;100832.22;4998027;28;45308;-50
2022/06/09 02:26:35;;;;;;;;;1.50;1.50;;;;;15.75;60.52;100812.91;4998877;28;46036;-48
2022/06/09 02:29:01;;;;;;;;;4.00;2.00;;;;;15.97;60.93;100837.16;4998538;28;45396;-50
2022/06/09 02:31:27;;;;;;;;;3.00;3.00;;;;;15.84;61.18;100829.94;4998324;28;45295;-52
2022/06/09 02:33:52;;;;;;;;;2.75;1.50;;;;;15.87;61.57;100835.00;4998472;28;45395;-49
2022/06/09 02:36:18;;;;;;;;;3.00;1.00;;;;;15.74;61.02;100816.72;4997054;28;45850;-49
2022/06/09 02:38:43;;;;;;;;;2.50;1.75;;;;;15.89;60.78;100832.00;4998262;28;45802;-49
2022/06/09 02:41:09;;;;;;;;;6.00;2.00;;;;;15.90;61.30;100845.56;5029478;28;46114;-48
2022/06/09 02:43:35;;;;;;;;;3.00;2.25;;;;;15.93;60.97;100838.72;5029724;28;45454;-50
2022/06/09 02:46:01;;;;;;;;;5.50;3.25;;;;;15.94;61.18;100838.50;4998479;28;45393;-53
2022/06/09 02:48:26;;;;;;;;;3.80;3.20;;;;;15.78;60.86;100806.00;5029712;28;45834;-54
2022/06/09 02:50:52;;;;;;;;;4.00;4.00;;;;;15.90;60.93;100831.72;5029801;28;46961;-50
2022/06/09 02:53:18;;;;;;;;;2.00;2.00;;;;;15.94;60.93;100841.25;4989397;28;45347;-50
2022/06/09 02:55:44;;;;;;;;;6.00;3.25;;;;;15.94;60.80;100841.25;4977192;28;45396;-49
2022/06/09 02:58:09;;;;;;;;;2.50;1.50;;;;;15.97;61.19;100845.47;4977881;28;45566;-50
2022/06/09 03:00:35;;;;;;;;;4.00;3.00;;;;;15.93;61.26;100841.50;4977706;28;46408;-50
2022/06/09 03:03:03;;;;;;;;;5.00;3.00;;;;;15.90;61.14;100839.19;4976765;28;45373;-53
2022/06/09 03:05:29;;;;;;;;;3.80;3.00;;;;;15.63;61.17;100810.16;4977935;28;45578;-50
2022/06/09 03:07:55;;;;;;;;;2.60;2.60;;;;;15.89;61.05;100848.59;4961116;28;45355;-47
2022/06/09 03:10:21;;;;;;;;;3.00;2.00;;;;;15.69;61.45;100802.81;4977607;28;45903;-49
2022/06/09 03:12:46;;;;;;;;;3.00;1.00;;;;;15.71;61.04;100817.25;4977614;28;45465;-49
2022/06/09 03:15:12;;;;;;;;;4.50;2.00;;;;;15.90;61.12;100850.28;4978085;28;45411;-51
2022/06/09 03:17:38;;;;;;;;;4.20;2.00;;;;;15.90;61.34;100850.28;4978200;28;45865;-54
2022/06/09 03:20:06;;;;;;;;;3.00;3.00;;;;;15.86;61.40;100842.44;4977717;28;46674;-52
2022/06/09 03:22:32;;;;;;;;;4.60;3.00;;;;;15.78;61.60;100847.53;4977511;28;45439;-53
2022/06/09 03:24:58;;;;;;;;;2.20;1.80;;;;;15.74;61.53;100835.28;4978103;28;45387;-51
2022/06/09 03:27:23;;;;;;;;;2.50;1.50;;;;;15.80;61.75;100843.44;4977647;28;45331;-52
2022/06/09 03:29:49;;;;;;;;;5.50;3.00;;;;;15.86;61.65;100839.69;4977694;28;45682;-51
2022/06/09 03:32:14;;;;;;;;;2.75;1.75;;;;;15.84;61.44;100847.41;4977657;28;45440;-49
2022/06/09 03:34:40;;;;;;;;;5.00;2.25;;;;;15.83;61.13;100839.31;4977277;28;45766;-50
2022/06/09 03:37:05;;;;;;;;;6.00;3.00;;;;;15.89;61.50;100854.97;4978024;28;45412;-50
2022/06/09 03:39:31;;;;;;;;;2.75;2.75;;;;;15.65;61.83;100838.44;4976127;28;45863;-50
2022/06/09 03:41:56;;;;;;;;;3.00;1.75;;;;;15.70;62.03;100855.13;4977877;28;45373;-49
2022/06/09 03:44:22;;;;;;;;;4.75;3.50;;;;;15.57;62.42;100858.16;4977776;28;45314;-50
2022/06/09 03:46:47;;;;;;;;;4.00;2.75;;;;;15.57;62.44;100867.31;4977692;28;45577;-51
2022/06/09 03:49:12;;;;;;;;;5.75;4.50;;;;;15.59;62.17;100873.44;4977728;28;46178;-50
2022/06/09 03:51:38;;;;;;;;;5.75;3.00;;;;;15.51;62.03;100865.50;4977275;28;45390;-49
2022/06/09 03:54:03;;;;;;;;;3.50;2.00;;;;;15.60;62.23;100868.75;4991333;28;45302;-50
2022/06/09 03:56:29;;;;;;;;;4.00;2.50;;;;;15.43;62.55;100847.34;4997389;28;45366;-49
2022/06/09 03:58:54;;;;;;;;;4.00;3.00;;;;;15.63;62.58;100886.78;5028884;28;46515;-47
2022/06/09 04:01:20;;;;;;;;;6.50;4.00;;;;;15.61;62.58;100878.72;4997045;28;45386;-50
2022/06/09 04:03:46;;;;;;;;;5.75;3.50;;;;;15.50;62.40;100897.00;5028825;28;45343;-49
2022/06/09 04:06:13;;;;;;;;;7.25;3.00;;;;;15.45;62.60;100902.41;4948447;28;45680;-50
2022/06/09 04:08:39;;;;;;;;;3.80;2.00;;;;;15.47;62.74;100899.41;4977106;28;46121;-53
2022/06/09 04:11:04;;;;;;;;;3.00;3.00;;;;;15.43;63.08;100888.00;4976875;28;45595;-52
2022/06/09 04:13:30;;;;;;;;;3.50;2.50;;;;;15.63;62.82;100906.16;4976019;28;45424;-49
2022/06/09 04:15:55;;;;;;;;;7.75;3.00;;;;;15.59;62.59;100901.09;4977401;28;45279;-49
2022/06/09 04:18:21;;;;;;;;;7.50;3.75;;;;;15.59;62.77;100912.16;4977149;28;46352;-47
2022/06/09 04:20:47;;;;;;;;;3.25;2.00;;;;;15.54;62.59;100925.03;4976795;28;45330;-53
2022/06/09 04:23:12;;;;;;;;;2.00;2.00;;;;;15.60;62.41;100924.06;4976284;28;45431;-54
2022/06/09 04:25:39;;;;;;;;;3.25;2.25;;;;;15.65;62.50;100934.41;4977555;28;45888;-49
2022/06/09 04:28:05;;;;;;;;;2.20;2.00;;;;;15.64;62.47;100918.91;4975083;28;46289;-47
2022/06/09 04:30:30;;;;;;;;;2.50;2.00;;;;;15.62;62.48;100919.13;4975732;28;45435;-48
2022/06/09 04:32:56;;;;;;;;;1.00;1.00;;;;;15.67;62.07;100923.94;4977196;28;45426;-52
2022/06/09 04:35:22;;;;;;;;;4.50;3.00;;;;;15.45;62.42;100891.34;4977004;28;45724;-49
2022/06/09 04:38:00;;;;;;;;;4.00;2.00;;;;;15.71;62.20;100942.56;4975626;28;45828;-50
2022/06/09 04:40:27;;;;;;;;;3.00;3.00;;;;;15.67;62.38;100949.69;4976704;28;45402;-52
2022/06/09 04:42:52;;;;;;;;;2.80;2.80;;;;;15.62;62.26;100948.75;4959693;28;45356;-48
2022/06/09 04:45:17;;;;;;;;;7.50;3.00;;;;;15.57;62.56;100958.59;4975745;28;45312;-52
2022/06/09 04:47:43;;;;;;;;;3.50;2.00;;;;;15.57;62.41;100950.28;4976729;28;45729;-50
2022/06/09 04:50:09;;;;;;;;;2.00;2.00;;;;;15.61;62.23;100953.41;4976286;28;45338;-50
2022/06/09 04:52:35;;;;;;;;;3.60;1.00;;;;;15.61;62.84;100958.09;4977123;28;45404;-49
2022/06/09 04:55:00;;;;;;;;;3.25;2.75;;;;;15.37;62.84;100927.69;5027999;28;45723;-51
2022/06/09 04:57:26;;;;;;;;;6.00;6.00;;;;;15.67;62.47;100969.06;4996257;28;46710;-50
2022/06/09 04:59:51;;;;;;;;;6.50;5.00;;;;;15.67;62.68;100976.50;4996202;28;45304;-50
2022/06/09 05:02:17;;;;;;;;;5.00;3.75;;;;;15.69;62.29;100971.59;4994877;28;45388;-54
2022/06/09 05:04:43;;;;;;;;;6.50;5.25;;;;;15.62;62.22;100957.84;4996217;28;45286;-52
2022/06/09 05:07:08;;;;;;;;;4.00;2.50;;;;;15.55;62.05;100938.63;4995903;28;45632;-52
2022/06/09 05:09:33;;;;;;;;;1.75;1.00;;;;;15.78;61.92;100975.66;4996183;28;45429;-50
2022/06/09 05:11:59;;;;;;;;;5.25;2.75;;;;;15.85;62.17;100981.09;4996131;28;45256;-51
2022/06/09 05:14:24;;;;;;;;;3.50;3.00;;;;;15.81;62.08;100983.47;4996155;28;45482;-50
2022/06/09 05:16:50;;;;;;;;;6.00;5.00;;;;;15.79;62.19;100974.56;4995939;28;45766;-52
2022/06/09 05:19:15;;;;;;;;;6.00;3.75;;;;;15.82;62.30;100984.31;4995905;28;45374;-51
2022/06/09 05:21:41;;;;;;;;;4.50;2.50;;;;;15.82;62.62;100987.09;4997253;28;45449;-51
2022/06/09 05:24:06;;;;;;;;;4.00;3.25;;;;;15.90;62.12;100991.44;4999442;28;45388;-54
2022/06/09 05:26:32;;;;;;;;;4.00;4.00;;;;;15.88;62.40;100994.44;4999522;28;46471;-48
2022/06/09 05:28:58;;;;;;;;;4.75;3.25;;;;;15.95;62.04;101002.66;4999433;28;45420;-50
2022/06/09 05:31:24;;;;;;;;;3.60;3.00;;;;;15.94;61.92;101009.25;5014544;28;45407;-53
2022/06/09 05:33:50;;;;;;;;;4.50;4.50;;;;;15.91;61.63;101004.19;4999710;28;45631;-50
2022/06/09 05:36:15;;;;;;;;;3.25;2.75;;;;;15.96;62.10;101001.56;4997553;28;46758;-50
2022/06/09 05:46:53;;;;;;;;;4.80;3.60;;;;;15.87;62.32;101017.66;5026101;28;45808;-51
2022/06/09 05:49:19;;;;;;;;;3.00;3.00;;;;;15.97;62.32;101017.09;4998400;28;45406;-49
2022/06/09 05:51:45;;;;;;;;;5.00;3.00;;;;;16.09;61.56;101014.28;4999013;28;45470;-50
2022/06/09 05:54:10;;;;;;;;;3.80;3.40;;;;;16.23;61.28;101028.75;4984756;28;45389;-51
2022/06/09 05:56:36;;;;;;;;;5.00;4.00;;;;;16.28;61.19;101033.53;4977590;28;46111;-48
2022/06/09 05:59:01;;;;;;;;;4.25;3.75;;;;;16.39;61.02;101039.06;4977836;28;45271;-51
2022/06/09 06:01:27;;;;;;;;;4.00;2.00;;;;;16.35;61.45;101045.31;4961067;28;45221;-51
2022/06/09 06:03:52;;;;;;;;;4.75;3.25;;;;;16.44;60.89;101045.81;4977998;28;45605;-50
2022/06/09 06:06:36;;;;;;;;;4.00;4.00;;;;;16.49;60.90;101040.38;4978887;28;45312;-53
2022/06/09 06:09:06;;;;;;;;;5.80;3.80;;;;;16.49;60.73;101038.44;4978962;28;45304;-51
2022/06/09 06:11:32;;;;;;;;;8.20;5.60;;;;;16.43;60.27;101027.50;4977606;28;45461;-50
2022/06/09 06:13:57;;;;;;;;;4.60;4.00;;;;;16.39;60.67;101022.44;4979225;28;45394;-51
2022/06/09 06:16:23;;;;;;;;;6.75;3.00;;;;;16.62;60.56;101045.63;4978479;28;45914;-52
2022/06/09 06:18:49;;;;;;;;;4.75;3.75;;;;;16.58;60.04;101049.97;4977355;28;45419;-48
2022/06/09 06:21:16;;;;;;;;;5.25;4.25;;;;;16.61;60.18;101065.28;4978876;28;45427;-49
2022/06/09 06:23:41;;;;;;;;;6.00;3.60;;;;;16.38;60.43;101034.59;4978520;28;45380;-52
2022/06/09 06:26:07;;;;;;;;;6.00;4.50;;;;;16.55;60.69;101057.94;4978334;28;46572;-48
2022/06/09 06:28:32;;;;;;;;;3.00;3.00;;;;;16.58;60.43;101060.19;4978549;28;45379;-50
2022/06/09 06:30:58;;;;;;;;;5.00;5.00;;;;;16.69;60.14;101052.97;4978337;28;45296;-52
2022/06/09 06:33:23;;;;;;;;;3.00;3.00;;;;;16.75;60.05;101060.31;4978113;28;45313;-47
2022/06/09 06:35:49;;;;;;;;;7.00;4.00;;;;;16.67;60.05;101042.94;4977964;28;46553;-53
2022/06/09 06:38:15;;;;;;;;;3.00;2.75;;;;;16.86;59.79;101069.66;4978422;28;45362;-52
2022/06/09 06:40:40;;;;;;;;;6.00;4.25;;;;;16.65;59.95;101038.78;4978438;28;45431;-49
2022/06/09 06:43:06;;;;;;;;;4.50;2.00;;;;;16.80;59.78;101065.94;4978974;28;45341;-52
2022/06/09 06:45:31;;;;;;;;;6.75;4.00;;;;;16.78;59.79;101066.19;4978425;28;45814;-53
2022/06/09 06:47:57;;;;;;;;;5.50;3.00;;;;;16.83;59.68;101073.78;4978487;28;45426;-49
2022/06/09 06:50:23;;;;;;;;;3.25;3.25;;;;;16.84;59.87;101081.00;4978549;28;45516;-49
2022/06/09 06:52:48;;;;;;;;;4.00;3.00;;;;;16.56;59.46;101024.44;4981310;28;45671;-53
2022/06/09 06:55:15;;;;;;;;;3.00;3.00;;;;;16.67;59.83;101054.03;4996837;28;46967;-50
2022/06/09 06:57:40;;;;;;;;;7.60;5.40;;;;;16.75;59.79;101052.00;4996665;28;45415;-51
2022/06/09 07:00:07;;;;;;;;;7.50;4.50;;;;;16.88;59.22;101048.06;5029902;28;45273;-49
2022/06/09 07:02:33;;;;;;;;;5.80;4.00;;;;;17.07;59.18;101073.69;5013491;28;45339;-53
2022/06/09 07:04:58;;;;;;;;;5.00;3.50;;;;;17.29;58.90;101098.78;4984348;28;45634;-55
2022/06/09 07:07:25;;;;;;;;;4.00;4.00;;;;;17.28;58.76;101097.13;4976634;28;45501;-51
2022/06/09 07:09:50;;;;;;;;;5.80;3.80;;;;;17.34;58.49;101107.22;4978055;28;45354;-54
2022/06/09 07:12:16;;;;;;;;;1.00;1.00;;;;;17.37;58.38;101111.44;4978408;28;45427;-49
2022/06/09 07:14:41;;;;;;;;;5.50;4.00;;;;;17.24;58.23;101084.81;4975954;28;45563;-49
2022/06/09 07:17:08;;;;;;;;;7.75;4.00;;;;;17.36;57.97;101104.22;4976098;28;45431;-49
2022/06/09 07:19:33;;;;;;;;;6.20;4.00;;;;;17.38;57.96;101112.25;4978396;28;45425;-49
2022/06/09 07:21:59;;;;;;;;;4.00;3.25;;;;;17.18;57.73;101099.72;4992890;28;45745;-48
2022/06/09 07:24:25;;;;;;;;;6.50;5.00;;;;;17.38;57.61;101132.53;4977898;28;45373;-52
2022/06/09 07:26:51;;;;;;;;;3.25;3.25;;;;;17.34;57.39;101128.56;4977902;28;45328;-55
2022/06/09 07:29:17;;;;;;;;;4.00;4.00;;;;;17.46;57.46;101137.69;4977649;28;45327;-55
2022/06/09 07:31:42;;;;;;;;;6.00;5.75;;;;;17.50;57.27;101131.66;4977214;28;45579;-53
2022/06/09 07:34:08;;;;;;;;;9.00;6.00;;;;;17.56;56.97;101138.97;4976007;28;46179;-50
2022/06/09 07:36:33;;;;;;;;;7.00;6.75;;;;;17.20;56.71;101086.44;4976749;28;45355;-53
2022/06/09 07:38:59;;;;;;;;;6.75;5.75;;;;;17.42;56.92;101119.88;4976499;28;45406;-51
2022/06/09 07:41:24;;;;;;;;;5.50;4.50;;;;;17.57;56.99;101135.94;4975666;28;45385;-53
2022/06/09 07:43:50;;;;;;;;;5.00;5.00;;;;;17.48;57.14;101149.38;4977893;28;46375;-51
2022/06/09 07:46:16;;;;;;;;;5.25;5.00;;;;;17.50;57.29;101148.28;4976094;28;45340;-49
2022/06/09 07:48:42;;;;;;;;;8.20;6.20;;;;;17.53;57.55;101143.09;4977735;28;45435;-54
2022/06/09 07:51:07;;;;;;;;;6.75;5.00;;;;;17.65;56.96;101147.75;4976919;28;45573;-49
2022/06/09 07:53:34;;;;;;;;;4.00;4.00;;;;;17.68;56.47;101145.31;4983853;28;46331;-51
2022/06/09 07:55:59;;;;;;;;;5.40;4.60;;;;;17.70;56.64;101143.13;5002530;28;45504;-51
2022/06/09 07:58:25;;;;;;;;;8.25;7.25;;;;;17.78;56.07;101157.66;4950577;28;45485;-51
2022/06/09 08:00:50;;;;;;;;;4.50;4.50;;;;;17.82;55.87;101156.91;4977019;28;46008;-50
2022/06/09 08:03:18;;;;;;;;;7.00;6.50;;;;;17.96;55.55;101148.25;4995348;28;46062;-55
2022/06/09 08:05:44;;;;;;;;;5.40;4.40;;;;;18.03;55.22;101151.69;4995258;28;45337;-54
2022/06/09 08:08:09;;;;;;;;;5.75;4.75;;;;;18.12;55.10;101155.78;5028078;28;45721;-50
2022/06/09 08:10:34;;;;;;;;;4.25;4.00;;;;;18.16;55.24;101164.47;4995702;28;45322;-51
2022/06/09 08:13:01;;;;;;;;;5.75;5.25;;;;;18.21;54.52;101160.91;4987776;28;45614;-55
2022/06/09 08:15:28;;;;;;;;;5.00;4.40;;;;;18.26;54.71;101180.44;4974973;28;45465;-50
2022/06/09 08:17:54;;;;;;;;;6.00;4.80;;;;;18.11;54.32;101148.56;4973936;28;45475;-51
2022/06/09 08:20:20;;;;;;;;;6.20;4.20;;;;;18.38;54.17;101169.22;4973854;28;45440;-51
2022/06/09 08:22:45;;;;;;;;;6.60;4.20;;;;;18.16;54.19;101156.13;4959193;28;45603;-55
2022/06/09 08:25:14;;;;;;;;;5.75;4.75;;;;;18.08;54.39;101148.22;4976695;28;45316;-53
2022/06/09 08:27:40;;;;;;;;;3.20;3.20;;;;;18.28;54.12;101172.69;4974238;28;45739;-51
2022/06/09 08:30:07;;;;;;;;;5.00;3.75;;;;;18.43;54.23;101180.44;4977362;28;45579;-52
2022/06/09 08:32:33;;;;;;;;;7.20;4.80;;;;;18.54;54.14;101184.22;4976375;28;45691;-53
2022/06/09 08:34:59;;;;;;;;;5.25;5.00;;;;;18.52;52.71;101191.97;4975583;28;45411;-50
2022/06/09 08:37:25;;;;;;;;;5.25;3.25;;;;;18.47;52.76;101189.94;4973244;28;45341;-51
2022/06/09 08:39:50;;;;;;;;;8.40;5.00;;;;;18.37;53.16;101184.22;4976669;28;45386;-51
2022/06/09 08:42:19;;;;;;;;;6.75;4.50;;;;;18.21;53.61;101164.53;4975344;28;45944;-51
2022/06/09 08:45:05;;;;;;;;;7.00;5.00;;;;;18.21;53.20;101158.13;4976289;28;45239;-56
2022/06/09 08:47:35;;;;;;;;;4.40;4.00;;;;;18.23;52.83;101158.72;4975112;28;45463;-51
2022/06/09 08:50:04;;;;;;;;;5.80;3.80;;;;;18.29;52.80;101189.13;4975153;28;45489;-52
2022/06/09 08:52:41;;;;;;;;;5.60;2.60;;;;;18.27;52.93;101185.75;4975910;28;45737;-49
2022/06/09 08:55:31;;;;;;;;;5.20;4.80;;;;;18.09;53.06;101142.41;4973079;28;45424;-52
2022/06/09 08:58:14;;;;;;;;;4.00;4.00;;;;;18.33;52.24;101174.69;4973968;28;45380;-53
2022/06/09 09:00:42;;;;;;;;;2.60;2.60;;;;;18.46;52.51;101171.56;4946713;28;45518;-52
2022/06/09 09:03:28;;;;;;;;;6.00;4.80;;;;;18.54;52.23;101175.88;4959646;28;46692;-51
2022/06/09 09:06:00;;;;;;;;;7.20;4.40;;;;;18.70;51.94;101177.75;4975034;28;45309;-54
2022/06/09 09:08:25;;;;;;;;;4.80;3.80;;;;;18.79;51.71;101164.25;4976156;28;45311;-52
2022/06/09 09:11:01;;;;;;;;;5.75;4.50;;;;;18.89;51.95;101173.84;4965458;28;45737;-52
2022/06/09 09:13:43;;;;;;;;;3.00;3.00;;;;;18.94;51.22;101165.59;5015653;28;45806;-53
2022/06/09 09:16:39;;;;;;;;;5.00;4.60;;;;;19.13;50.59;101157.78;4991039;28;45474;-51
2022/06/09 09:19:36;;;;;;;;;4.00;4.00;;;;;19.22;49.46;101152.59;4966999;28;45495;-51
2022/06/09 09:22:15;;;;;;;;;3.60;3.60;;;;;19.22;50.13;101172.91;4975009;28;45597;-52
2022/06/09 09:24:59;;;;;;;;;6.60;4.20;;;;;19.01;50.43;101152.31;4989443;28;46615;-51
2022/06/09 09:27:53;;;;;;;;;4.00;4.00;;;;;19.17;50.21;101177.56;4975848;28;45196;-52
2022/06/09 09:30:23;;;;;;;;;6.40;4.20;;;;;19.25;49.43;101181.84;4976019;28;45727;-49
2022/06/09 09:32:50;;;;;;;;;3.00;3.00;;;;;19.03;49.41;101158.50;4974589;28;45484;-51
2022/06/09 09:35:22;;;;;;;;;5.40;5.40;;;;;19.08;49.26;101152.16;4975909;28;45383;-48
2022/06/09 09:37:52;;;;;;;;;4.00;3.00;;;;;19.20;49.89;101179.81;4974218;28;45402;-52
2022/06/09 09:40:30;;;;;;;;;9.40;5.00;;;;;19.16;50.04;101175.91;4937064;28;45388;-52
2022/06/09 09:43:08;;;;;;;;;2.80;2.40;;;;;19.23;48.82;101182.09;4935983;28;45404;-54
2022/06/09 09:45:42;;;;;;;;;3.00;2.80;;;;;19.48;48.64;101189.06;4937118;28;45418;-51
2022/06/09 09:48:36;;;;;;;;;5.60;4.00;;;;;19.70;47.97;101185.38;4935238;28;45506;-54
2022/06/09 09:51:03;;;;;;;;;7.20;2.40;;;;;19.70;47.73;101174.25;4934330;28;45552;-51
2022/06/09 09:53:34;;;;;;;;;4.00;4.00;;;;;19.84;48.10;101181.06;4940145;28;45490;-52
2022/06/09 09:56:14;;;;;;;;;6.80;5.00;;;;;19.98;46.98;101187.09;4955746;28;45734;-54
2022/06/09 09:58:48;;;;;;;;;4.00;4.00;;;;;20.15;47.09;101192.53;4955767;28;45433;-50
2022/06/09 10:01:14;;;;;;;;;3.20;2.40;;;;;20.14;47.29;101192.78;4931738;28;45394;-51
2022/06/09 10:09:31;;;;;;;;;4.00;2.80;;;;;19.64;48.04;101178.94;4953783;28;45434;-51
2022/06/09 10:12:01;;;;;;;;;8.00;8.00;;;;;19.76;48.22;101201.88;4896280;28;45454;-51
2022/06/09 10:14:38;;;;;;;;;7.80;5.00;;;;;19.81;47.55;101216.97;4921028;28;45683;-48
2022/06/09 10:17:27;;;;;;;;;4.40;3.40;;;;;19.76;47.63;101209.41;4946375;28;47041;-48
2022/06/09 10:19:58;;;;;;;;;5.40;4.20;;;;;19.73;47.54;101207.97;4956850;28;45449;-48
2022/06/09 10:22:26;;;;;;;;;3.40;3.40;;;;;19.77;46.96;101209.16;4958477;28;45384;-47
2022/06/09 10:24:57;;;;;;;;;6.00;4.60;;;;;19.85;46.76;101206.97;4921127;28;45625;-48
2022/06/09 10:27:26;;;;;;;;;6.80;6.80;;;;;19.97;46.86;101213.25;4905448;28;47045;-50
2022/06/09 10:30:12;;;;;;;;;7.20;4.60;;;;;20.07;46.65;101211.66;4943756;28;45439;-47
2022/06/09 10:32:44;;;;;;;;;4.20;4.20;;;;;20.02;46.08;101179.03;4940412;28;45458;-48
2022/06/09 10:35:32;;;;;;;;;4.00;4.00;;;;;20.30;45.85;101213.25;4957110;28;45411;-51
2022/06/09 10:38:10;;;;;;;;;2.60;2.20;;;;;20.30;45.57;101216.91;4937624;28;48696;-50
2022/06/09 10:40:39;;;;;;;;;5.60;5.00;;;;;20.40;45.54;101215.28;4959989;28;45499;-49
2022/06/09 10:43:16;;;;;;;;;3.60;3.60;;;;;20.48;44.02;101209.19;4960277;28;45370;-49
2022/06/09 10:45:42;;;;;;;;;0.80;0.80;;;;;;;;4976636;28;45559;-50
2022/06/09 10:57:04;;;;;;;;;4.40;1.80;;;;;20.72;44.91;101209.63;4996934;28;45332;-54
2022/06/09 10:59:41;;;;;;;;;5.60;2.00;;;;;20.90;43.94;101221.50;5028431;28;46979;-54
2022/06/09 11:02:27;;;;;;;;;5.00;2.80;;;;;20.83;43.03;101232.03;4992682;28;45389;-50
2022/06/09 11:04:52;;;;;;;;;2.20;2.20;;;;;20.83;44.03;101216.13;4975633;28;45599;-51
2022/06/09 11:07:51;;;;;;;;;2.00;2.00;;;;;21.01;43.57;101214.00;4997052;28;45716;-50
2022/06/09 11:10:22;;;;;;;;;4.80;2.60;;;;;21.17;43.13;101228.88;4995921;28;45937;-54
2022/06/09 11:12:48;;;;;;;;;4.20;3.80;;;;;21.14;43.22;101246.19;4957971;28;45302;-49
2022/06/09 11:15:34;;;;;;;;;6.50;3.50;;;;;21.15;42.84;101233.91;4966688;28;45921;-50
2022/06/09 11:18:38;;;;;;;;;6.20;6.20;;;;;21.33;43.51;101240.09;4976519;28;45393;-50
2022/06/09 11:21:29;;;;;;;;;6.00;4.60;;;;;21.49;42.79;101236.28;4976703;28;45779;-50
2022/06/09 11:23:54;;;;;;;;;2.00;2.00;;;;;21.39;41.88;101202.72;4976479;28;45770;-54
2022/06/09 11:26:47;;;;;;;;;4.25;4.00;;;;;21.43;41.68;101209.44;4975116;28;45395;-53
2022/06/09 11:29:38;;;;;;;;;3.00;2.00;;;;;21.56;41.32;101235.19;4977430;28;45247;-51
2022/06/09 11:32:45;;;;;;;;;3.20;3.20;;;;;21.55;41.66;101230.72;4976278;28;46775;-49
2022/06/09 11:35:38;;;;;;;;;3.80;3.40;;;;;21.44;40.77;101227.88;4925146;28;45497;-53
2022/06/09 11:38:13;;;;;;;;;1.80;1.80;;;;;21.42;41.67;101246.00;5007722;28;45410;-53
2022/06/09 11:40:43;;;;;;;;;1.80;0.80;;;;;21.59;40.89;101238.25;4976220;28;45442;-51
2022/06/09 11:43:27;;;;;;;;;1.80;1.80;;;;;21.85;40.76;101226.31;4977616;28;45969;-54
2022/06/09 11:45:57;;;;;;;;;2.60;2.60;;;;;21.85;40.46;101234.72;4977175;28;45319;-52
2022/06/09 11:48:56;;;;;;;;;3.20;2.00;;;;;22.02;40.82;101237.25;4960824;28;45445;-53
2022/06/09 11:51:23;;;;;;;;;3.20;2.40;;;;;22.09;40.64;101235.00;4968097;28;45394;-54
2022/06/09 11:53:51;;;;;;;;;3.60;3.00;;;;;22.14;39.93;101237.00;4961377;28;45883;-53
2022/06/09 11:56:36;;;;;;;;;3.60;2.00;;;;;21.95;40.78;101201.22;4994727;28;45810;-52
2022/06/09 11:59:16;;;;;;;;;3.20;2.00;;;;;22.28;40.00;101229.72;4996642;28;45452;-50
2022/06/09 12:01:57;;;;;;;;;2.80;2.80;;;;;22.20;39.67;101191.16;4996642;28;45466;-54
2022/06/09 12:04:47;;;;;;;;;2.20;2.20;;;;;22.29;38.95;101227.75;4958768;28;46243;-50